Time;durP1;ratioP1;P1;durP2;ratioP2;P2;SDS_P1;SDS_P2;PMS_P1;PMS_P2;Temp;Humidity;BMP_temperature;BMP_pressure;BME280_temperature;BME280_humidity;BME280_pressure;Samples;Min_cycle;Max_cycle;Signal;HPM_P1;HPM_P2
2022/07/26 00:01:55;;;;;;;15.05;4.43;;;20.20;99.90;;;;;;4958443;28;20523;-81
2022/07/26 00:04:20;;;;;;;8.05;3.75;;;20.20;99.90;;;;;;4975131;28;20483;-81
2022/07/26 00:06:46;;;;;;;10.95;3.42;;;20.20;99.90;;;;;;4976774;28;20030;-81
2022/07/26 00:09:12;;;;;;;14.57;5.10;;;20.10;99.90;;;;;;4976131;28;20075;-81
2022/07/26 00:11:37;;;;;;;5.75;3.35;;;20.10;99.90;;;;;;4976923;28;20405;-81
2022/07/26 00:14:04;;;;;;;8.98;3.72;;;20.10;99.90;;;;;;4964697;28;20034;-81
2022/07/26 00:16:38;;;;;;;6.80;2.90;;;20.10;99.90;;;;;;4973544;28;20031;-81
2022/07/26 00:19:06;;;;;;;7.35;3.63;;;20.00;99.90;;;;;;4975084;28;20487;-81
2022/07/26 00:21:36;;;;;;;6.28;4.40;;;20.00;99.90;;;;;;4971651;28;20538;-81
2022/07/26 00:24:02;;;;;;;8.35;3.85;;;20.00;99.90;;;;;;4963361;28;20535;-81
2022/07/26 00:26:29;;;;;;;9.77;3.85;;;20.00;99.90;;;;;;4976194;28;20102;-81
2022/07/26 00:28:55;;;;;;;5.65;3.70;;;19.90;99.90;;;;;;4968373;28;20042;-81
2022/07/26 00:31:27;;;;;;;8.52;3.28;;;20.00;99.90;;;;;;4976243;28;20030;-81
2022/07/26 00:33:52;;;;;;;8.50;3.50;;;19.90;99.90;;;;;;4975850;28;20478;-81
2022/07/26 00:36:20;;;;;;;9.02;4.00;;;19.90;99.90;;;;;;4975795;28;20039;-81
2022/07/26 00:38:45;;;;;;;11.25;4.30;;;19.90;99.90;;;;;;4961427;28;20023;-81
2022/07/26 00:41:14;;;;;;;8.88;3.10;;;19.80;99.90;;;;;;4970640;28;20384;-81
2022/07/26 00:43:58;;;;;;;10.20;3.42;;;19.80;99.90;;;;;;4976555;28;20033;-81
2022/07/26 00:46:24;;;;;;;6.97;3.90;;;19.80;99.90;;;;;;4974696;28;20030;-81
2022/07/26 00:48:56;;;;;;;7.15;3.65;;;19.70;99.90;;;;;;4976038;28;20019;-81
2022/07/26 00:51:22;;;;;;;11.82;4.07;;;19.70;99.90;;;;;;4975837;28;20023;-81
2022/07/26 00:53:48;;;;;;;13.20;4.00;;;19.60;99.90;;;;;;4975502;28;20407;-81
2022/07/26 00:56:15;;;;;;;15.93;3.88;;;19.50;99.90;;;;;;4975547;28;20030;-81
2022/07/26 00:58:42;;;;;;;8.13;4.15;;;19.50;99.90;;;;;;4975605;28;20055;-81
2022/07/26 01:01:08;;;;;;;7.72;3.55;;;19.40;99.90;;;;;;4975623;28;20034;-81
2022/07/26 01:03:34;;;;;;;13.75;4.32;;;19.40;99.90;;;;;;4969187;28;20027;-81
2022/07/26 01:06:01;;;;;;;17.38;4.68;;;19.40;99.90;;;;;;4968568;28;20039;-80
2022/07/26 01:08:27;;;;;;;14.38;4.03;;;19.30;99.90;;;;;;4974824;28;20133;-80
2022/07/26 01:10:53;;;;;;;9.48;3.28;;;19.30;99.90;;;;;;4975336;28;20030;-80
2022/07/26 01:13:22;;;;;;;14.80;4.35;;;19.20;99.90;;;;;;4974944;28;20046;-80
2022/07/26 01:15:48;;;;;;;7.43;3.20;;;19.20;99.90;;;;;;4975525;28;20034;-80
2022/07/26 01:18:14;;;;;;;9.73;3.78;;;19.20;99.90;;;;;;4972539;28;20089;-81
2022/07/26 01:20:42;;;;;;;6.60;3.35;;;19.20;99.90;;;;;;4974351;28;20035;-81
2022/07/26 01:23:13;;;;;;;8.93;3.08;;;19.20;99.90;;;;;;4974626;28;20022;-81
2022/07/26 01:25:38;;;;;;;11.88;2.97;;;19.20;99.90;;;;;;4975585;28;20243;-81
2022/07/26 01:28:10;;;;;;;9.60;3.15;;;19.10;99.90;;;;;;4975331;28;20038;-81
2022/07/26 01:30:35;;;;;;;12.82;3.40;;;19.10;99.90;;;;;;4974844;28;20379;-80
2022/07/26 01:33:01;;;;;;;11.23;3.15;;;19.00;99.90;;;;;;4959712;28;20031;-81
2022/07/26 01:35:26;;;;;;;12.35;3.78;;;19.00;99.90;;;;;;4967928;28;20420;-80
2022/07/26 01:37:53;;;;;;;12.38;3.28;;;19.00;99.90;;;;;;4965135;28;20082;-80
2022/07/26 01:40:18;;;;;;;11.45;3.10;;;19.00;99.90;;;;;;4974882;28;20026;-80
2022/07/26 01:42:44;;;;;;;10.57;3.13;;;18.90;99.90;;;;;;4973621;28;20364;-81
2022/07/26 01:45:15;;;;;;;11.48;3.42;;;18.90;99.90;;;;;;4974406;28;20031;-81
2022/07/26 01:47:40;;;;;;;19.00;3.80;;;18.90;99.90;;;;;;4969469;28;20027;-79
2022/07/26 01:50:12;;;;;;;7.60;3.65;;;18.80;99.90;;;;;;4973367;28;20081;-80
2022/07/26 01:52:38;;;;;;;11.50;3.67;;;18.80;99.90;;;;;;4964760;28;20034;-80
2022/07/26 01:55:03;;;;;;;12.40;4.13;;;18.80;99.90;;;;;;4973379;28;20015;-80
2022/07/26 01:57:29;;;;;;;8.85;3.08;;;18.80;99.90;;;;;;4973901;28;20030;-80
2022/07/26 01:59:55;;;;;;;18.13;4.25;;;18.80;99.90;;;;;;4971316;28;20027;-80
2022/07/26 02:38:25;;;;;;;16.60;2.75;;;18.40;99.90;;;;;;4984647;28;20100;-80
2022/07/26 02:40:51;;;;;;;7.28;3.50;;;18.40;99.90;;;;;;4981867;28;20078;-80
2022/07/26 02:43:17;;;;;;;17.65;3.20;;;18.40;99.90;;;;;;4971045;28;20023;-80
2022/07/26 02:45:43;;;;;;;12.45;3.20;;;18.40;99.90;;;;;;4962229;28;20030;-80
2022/07/26 02:48:09;;;;;;;21.05;3.53;;;18.40;99.90;;;;;;4964236;28;20114;-80
2022/07/26 02:50:34;;;;;;;19.52;3.50;;;18.40;99.90;;;;;;4973714;28;20118;-80
2022/07/26 02:53:01;;;;;;;17.23;4.50;;;18.40;99.90;;;;;;4973383;28;20019;-80
2022/07/26 02:55:27;;;;;;;13.32;5.13;;;18.40;99.90;;;;;;4952903;28;20024;-80
2022/07/26 02:57:59;;;;;;;15.55;5.85;;;18.40;99.90;;;;;;4965421;28;20029;-81
2022/07/26 03:00:25;;;;;;;18.63;6.78;;;18.40;99.90;;;;;;4944783;28;20022;-80
2022/07/26 03:02:52;;;;;;;21.60;7.85;;;18.40;99.90;;;;;;4970871;28;20149;-80
2022/07/26 03:05:19;;;;;;;20.58;7.53;;;18.50;99.90;;;;;;4973075;28;20027;-80
2022/07/26 03:07:46;;;;;;;21.02;8.43;;;18.50;99.90;;;;;;4972682;28;20030;-80
2022/07/26 03:10:12;;;;;;;28.20;9.38;;;18.40;99.90;;;;;;4971823;28;20029;-80
2022/07/26 03:12:39;;;;;;;18.02;8.02;;;18.40;99.90;;;;;;4973688;28;20082;-80
2022/07/26 03:15:05;;;;;;;18.27;7.57;;;18.40;99.90;;;;;;4964249;28;20388;-80
2022/07/26 03:17:32;;;;;;;20.17;7.32;;;18.40;99.90;;;;;;4969276;28;20030;-80
2022/07/26 03:19:57;;;;;;;20.95;6.97;;;18.40;99.90;;;;;;4974073;28;20438;-80
2022/07/26 03:22:24;;;;;;;19.00;6.35;;;18.40;99.90;;;;;;4961626;28;20095;-80
2022/07/26 03:24:50;;;;;;;22.45;6.32;;;18.50;99.90;;;;;;4968250;28;20031;-80
2022/07/26 03:27:16;;;;;;;20.50;6.43;;;18.50;99.90;;;;;;4973631;28;20395;-80
2022/07/26 03:29:42;;;;;;;12.85;6.03;;;18.40;99.90;;;;;;4955038;28;20539;-80
2022/07/26 03:32:08;;;;;;;16.75;6.30;;;18.40;99.90;;;;;;4973704;28;20039;-80
2022/07/26 03:34:34;;;;;;;19.20;5.25;;;18.40;99.90;;;;;;4984026;28;20030;-80
2022/07/26 03:37:02;;;;;;;15.23;5.20;;;18.40;99.90;;;;;;4965000;28;20035;-80
2022/07/26 03:39:28;;;;;;;7.55;4.60;;;18.40;99.90;;;;;;4972889;28;20035;-80
2022/07/26 03:42:07;;;;;;;24.33;5.10;;;18.40;99.90;;;;;;4973587;28;20030;-81
2022/07/26 03:44:33;;;;;;;14.40;4.63;;;18.40;99.90;;;;;;4971228;28;20491;-81
2022/07/26 03:46:59;;;;;;;14.95;4.47;;;18.40;99.90;;;;;;4969137;28;20118;-80
2022/07/26 03:49:26;;;;;;;11.43;4.70;;;18.40;99.90;;;;;;4973303;28;20019;-80
2022/07/26 03:51:52;;;;;;;16.30;4.32;;;18.40;99.90;;;;;;4971951;28;20069;-80
2022/07/26 03:54:18;;;;;;;15.38;4.15;;;18.40;99.90;;;;;;4956111;28;20105;-80
2022/07/26 03:56:44;;;;;;;21.50;4.13;;;18.40;99.90;;;;;;4971807;28;20042;-80
2022/07/26 03:59:10;;;;;;;17.33;3.70;;;18.30;99.90;;;;;;4975541;28;20035;-80
2022/07/26 04:01:40;;;;;;;15.80;4.40;;;18.30;99.90;;;;;;4973300;28;20049;-81
2022/07/26 04:04:08;;;;;;;12.77;3.50;;;18.30;99.90;;;;;;4972417;28;20027;-80
2022/07/26 04:06:34;;;;;;;15.68;3.90;;;18.30;99.90;;;;;;4973764;28;20031;-80
2022/07/26 04:09:10;;;;;;;10.82;3.47;;;18.30;99.90;;;;;;4973272;28;20037;-81
2022/07/26 04:11:36;;;;;;;11.23;3.13;;;18.30;99.90;;;;;;4969323;28;20029;-81
2022/07/26 04:14:03;;;;;;;14.75;3.92;;;18.30;99.90;;;;;;4971541;28;20031;-80
2022/07/26 04:16:29;;;;;;;15.32;3.67;;;18.30;99.90;;;;;;4971882;28;20066;-81
2022/07/26 04:18:56;;;;;;;9.82;3.15;;;18.30;99.90;;;;;;4958060;28;20109;-81
2022/07/26 04:21:22;;;;;;;8.02;3.03;;;18.30;99.90;;;;;;4968045;28;20018;-81
2022/07/26 04:23:55;;;;;;;8.70;3.33;;;18.40;99.90;;;;;;4974209;28;20482;-81
2022/07/26 04:26:21;;;;;;;19.88;3.95;;;18.40;99.90;;;;;;4973573;28;20045;-81
2022/07/26 04:28:47;;;;;;;12.73;3.53;;;18.40;99.90;;;;;;4975030;28;20578;-80
2022/07/26 04:31:12;;;;;;;10.93;3.65;;;18.40;99.90;;;;;;4975459;28;20077;-81
2022/07/26 04:33:38;;;;;;;11.70;2.67;;;18.40;99.90;;;;;;4976353;28;20441;-80
2022/07/26 04:36:04;;;;;;;8.38;2.90;;;18.30;99.90;;;;;;4973405;28;20038;-80
2022/07/26 04:38:29;;;;;;;17.35;3.03;;;18.40;99.90;;;;;;4992931;28;20042;-80
2022/07/26 04:40:56;;;;;;;15.10;2.60;;;18.30;99.90;;;;;;5012852;28;20474;-80
2022/07/26 04:43:22;;;;;;;11.68;2.80;;;18.30;99.90;;;;;;5003148;28;21016;-80
2022/07/26 04:45:50;;;;;;;13.80;3.42;;;18.30;99.90;;;;;;4993317;28;20113;-80
2022/07/26 04:48:16;;;;;;;9.48;2.53;;;18.30;99.90;;;;;;4993893;28;20121;-80
2022/07/26 04:50:43;;;;;;;15.98;2.78;;;18.30;99.90;;;;;;5009384;28;20104;-80
2022/07/26 04:53:12;;;;;;;12.65;2.58;;;18.40;99.90;;;;;;5007735;28;20836;-80
2022/07/26 04:55:40;;;;;;;7.53;2.28;;;18.40;99.90;;;;;;5011910;28;20470;-80
2022/07/26 04:58:06;;;;;;;12.18;3.25;;;18.40;99.90;;;;;;4995780;28;20030;-80
2022/07/26 05:00:32;;;;;;;10.02;2.42;;;18.40;99.90;;;;;;5014647;28;20504;-80
2022/07/26 05:02:59;;;;;;;19.00;2.60;;;18.40;99.90;;;;;;5014394;28;20021;-80
2022/07/26 05:05:29;;;;;;;16.48;3.78;;;18.50;99.90;;;;;;5014905;28;20037;-80
2022/07/26 05:07:56;;;;;;;11.15;2.70;;;18.50;99.90;;;;;;5014810;28;20026;-80
2022/07/26 05:10:38;;;;;;;13.05;2.13;;;18.50;99.90;;;;;;4982240;28;20572;-80
2022/07/26 05:13:05;;;;;;;9.98;2.10;;;18.50;99.90;;;;;;4997680;28;20026;-80
2022/07/26 05:15:34;;;;;;;9.05;2.45;;;18.50;99.90;;;;;;5014090;28;20033;-80
2022/07/26 05:18:05;;;;;;;5.38;1.85;;;18.50;99.90;;;;;;4997628;28;20101;-80
2022/07/26 05:20:33;;;;;;;19.73;3.22;;;18.60;99.90;;;;;;4997349;28;20026;-80
2022/07/26 05:22:58;;;;;;;11.75;1.98;;;18.60;99.90;;;;;;5013310;28;20060;-80
2022/07/26 05:25:25;;;;;;;11.63;2.97;;;18.60;99.90;;;;;;4995178;28;20467;-80
2022/07/26 05:27:51;;;;;;;8.95;2.47;;;18.60;99.90;;;;;;4995580;28;20027;-81
2022/07/26 05:30:18;;;;;;;12.75;2.78;;;18.70;99.90;;;;;;5011018;28;20038;-80
2022/07/26 05:32:44;;;;;;;11.52;2.40;;;18.70;99.90;;;;;;5010584;28;20610;-80
2022/07/26 05:35:10;;;;;;;11.00;2.33;;;18.70;99.90;;;;;;5012256;28;20091;-80
2022/07/26 05:37:36;;;;;;;9.02;2.20;;;18.80;99.90;;;;;;5013976;28;20050;-80
2022/07/26 05:40:03;;;;;;;10.15;3.30;;;18.80;99.90;;;;;;4995162;28;20117;-80
2022/07/26 05:42:30;;;;;;;14.68;4.13;;;18.80;99.90;;;;;;5013688;28;20371;-80
2022/07/26 05:44:55;;;;;;;11.13;2.55;;;18.80;99.90;;;;;;5012345;28;20033;-80
2022/07/26 05:47:23;;;;;;;16.48;3.72;;;18.80;99.90;;;;;;5014099;28;20042;-80
2022/07/26 05:49:49;;;;;;;11.63;2.17;;;18.80;99.90;;;;;;5014286;28;20050;-80
2022/07/26 05:52:15;;;;;;;22.75;2.30;;;18.80;99.90;;;;;;5014000;28;20466;-80
2022/07/26 05:54:40;;;;;;;18.20;2.20;;;18.80;99.90;;;;;;5013610;28;20038;-80
2022/07/26 05:57:06;;;;;;;7.60;2.20;;;18.80;99.90;;;;;;5013977;28;20025;-80
2022/07/26 05:59:31;;;;;;;5.47;2.22;;;18.80;99.90;;;;;;5008442;28;20054;-80
2022/07/26 06:01:57;;;;;;;9.68;2.25;;;18.90;99.90;;;;;;5013467;28;20092;-80
2022/07/26 06:04:23;;;;;;;12.18;2.03;;;18.80;99.90;;;;;;5013604;28;20105;-80
2022/07/26 06:06:51;;;;;;;11.02;2.65;;;18.80;99.90;;;;;;5026987;28;20033;-81
2022/07/26 06:09:16;;;;;;;12.85;2.40;;;18.80;99.90;;;;;;5011871;28;20029;-80
2022/07/26 06:11:44;;;;;;;22.48;3.28;;;18.80;99.90;;;;;;5010826;28;20036;-81
2022/07/26 06:14:09;;;;;;;9.48;2.22;;;18.90;99.90;;;;;;5011707;28;20108;-80
2022/07/26 06:16:37;;;;;;;12.77;2.28;;;18.90;99.90;;;;;;5012827;28;20114;-81
2022/07/26 06:19:02;;;;;;;4.55;1.92;;;19.00;99.90;;;;;;5013256;28;20056;-80
2022/07/26 06:21:37;;;;;;;11.88;2.40;;;19.10;99.90;;;;;;5013697;28;20061;-81
2022/07/26 06:24:03;;;;;;;10.13;2.53;;;19.10;99.90;;;;;;5013187;28;20021;-81
2022/07/26 06:26:36;;;;;;;12.30;2.20;;;19.20;99.90;;;;;;5012429;28;20296;-80
2022/07/26 06:29:02;;;;;;;10.68;2.35;;;19.20;99.90;;;;;;5013371;28;20465;-80
2022/07/26 06:31:28;;;;;;;9.43;2.05;;;19.30;99.90;;;;;;5022710;28;20060;-81
2022/07/26 06:33:54;;;;;;;17.48;2.28;;;19.30;99.90;;;;;;5007743;28;20079;-81
2022/07/26 06:36:20;;;;;;;16.90;2.55;;;19.30;99.90;;;;;;5002593;28;20430;-80
2022/07/26 06:38:58;;;;;;;11.50;2.42;;;19.40;99.90;;;;;;5007633;28;20045;-80
2022/07/26 06:41:24;;;;;;;11.38;2.67;;;19.50;99.90;;;;;;5013343;28;20032;-79
2022/07/26 06:43:50;;;;;;;17.70;2.80;;;19.40;99.90;;;;;;5013105;28;20109;-80
2022/07/26 06:46:15;;;;;;;9.98;2.55;;;19.50;99.90;;;;;;5013462;28;20450;-80
2022/07/26 06:48:44;;;;;;;13.43;2.75;;;19.40;99.90;;;;;;5013263;28;20026;-80
2022/07/26 06:51:10;;;;;;;8.63;2.72;;;19.50;99.90;;;;;;5013334;28;20485;-80
2022/07/26 06:53:35;;;;;;;10.27;2.35;;;19.50;99.90;;;;;;5012694;28;20029;-79
2022/07/26 06:56:01;;;;;;;7.15;2.10;;;19.60;99.90;;;;;;5012922;28;20072;-80
2022/07/26 06:58:27;;;;;;;8.20;2.38;;;19.70;99.90;;;;;;5013226;28;20034;-80
2022/07/26 07:00:52;;;;;;;10.60;2.38;;;19.70;99.90;;;;;;5013040;28;20466;-80
2022/07/26 07:03:19;;;;;;;10.52;1.85;;;19.80;99.90;;;;;;5010231;28;20035;-80
2022/07/26 07:05:45;;;;;;;6.60;1.85;;;19.80;99.90;;;;;;5011320;28;20032;-80
2022/07/26 07:08:13;;;;;;;10.60;2.20;;;19.80;99.90;;;;;;5010915;28;20022;-80
2022/07/26 07:10:38;;;;;;;9.40;2.03;;;19.90;99.90;;;;;;5010726;28;20049;-80
2022/07/26 07:13:04;;;;;;;4.80;1.52;;;19.90;99.90;;;;;;5013097;28;20038;-80
2022/07/26 07:15:30;;;;;;;6.38;1.98;;;20.00;99.90;;;;;;5013038;28;20022;-80
2022/07/26 07:17:55;;;;;;;10.52;1.70;;;19.90;99.90;;;;;;5012991;28;20480;-80
2022/07/26 07:20:21;;;;;;;5.10;1.73;;;20.00;99.90;;;;;;4994890;28;20540;-80
2022/07/26 07:22:46;;;;;;;6.03;1.70;;;20.00;99.90;;;;;;4994914;28;20052;-80
2022/07/26 07:25:12;;;;;;;12.75;1.98;;;20.10;99.90;;;;;;4995099;28;20018;-80
2022/07/26 07:27:37;;;;;;;7.32;1.65;;;20.20;99.90;;;;;;4993910;28;20422;-80
2022/07/26 07:30:04;;;;;;;4.03;1.60;;;20.20;99.90;;;;;;5007150;28;20429;-80
2022/07/26 07:32:29;;;;;;;7.03;1.92;;;20.30;99.90;;;;;;5012888;28;20389;-80
2022/07/26 07:34:55;;;;;;;5.50;1.67;;;20.30;99.90;;;;;;5012681;28;20026;-80
2022/07/26 07:37:21;;;;;;;4.13;1.83;;;20.30;99.90;;;;;;5009873;28;20026;-80
2022/07/26 07:39:47;;;;;;;5.20;1.50;;;20.30;99.90;;;;;;4993326;28;20053;-80
2022/07/26 07:42:12;;;;;;;5.45;1.60;;;20.40;99.90;;;;;;4974183;28;20147;-80
2022/07/26 07:44:40;;;;;;;10.30;1.50;;;20.40;99.90;;;;;;4992322;28;20062;-79
2022/07/26 07:47:07;;;;;;;8.30;2.45;;;20.40;99.90;;;;;;4992839;28;20397;-80
2022/07/26 07:49:33;;;;;;;5.50;1.67;;;20.40;99.90;;;;;;4993843;28;20080;-79
2022/07/26 07:51:59;;;;;;;5.95;1.92;;;20.40;99.90;;;;;;4982629;28;20038;-79
2022/07/26 07:54:25;;;;;;;8.40;1.80;;;20.40;99.90;;;;;;4996830;28;20022;-79
2022/07/26 07:56:51;;;;;;;5.03;1.92;;;20.30;99.90;;;;;;4995178;28;20462;-80
2022/07/26 07:59:17;;;;;;;4.60;1.98;;;20.30;99.90;;;;;;4994203;28;20056;-80
2022/07/26 08:01:43;;;;;;;3.58;2.08;;;20.40;99.90;;;;;;4996536;28;20061;-80
2022/07/26 08:04:08;;;;;;;4.55;1.75;;;20.40;99.90;;;;;;4995996;28;20500;-80
2022/07/26 08:06:36;;;;;;;10.38;2.10;;;20.50;99.90;;;;;;4995642;28;20022;-79
2022/07/26 08:09:01;;;;;;;7.65;2.10;;;20.60;99.90;;;;;;4994018;28;20034;-79
2022/07/26 08:11:27;;;;;;;7.95;2.08;;;20.70;99.90;;;;;;4967999;28;20045;-79
2022/07/26 08:13:52;;;;;;;8.25;2.58;;;20.70;99.90;;;;;;4977272;28;20030;-80
2022/07/26 08:16:18;;;;;;;14.50;2.60;;;20.70;99.90;;;;;;4975418;28;20022;-80
2022/07/26 08:18:44;;;;;;;4.47;2.20;;;20.70;99.90;;;;;;4995106;28;20026;-79
2022/07/26 08:21:09;;;;;;;6.85;2.70;;;20.70;99.90;;;;;;4993107;28;20397;-80
2022/07/26 08:23:35;;;;;;;6.60;2.22;;;20.70;99.90;;;;;;4995370;28;20033;-80
2022/07/26 08:26:01;;;;;;;7.05;2.40;;;20.80;99.90;;;;;;4995355;28;20085;-80
2022/07/26 08:28:27;;;;;;;4.80;2.47;;;20.80;99.90;;;;;;4996038;28;20034;-80
2022/07/26 08:30:53;;;;;;;6.60;2.40;;;20.90;99.90;;;;;;4972533;28;20027;-80
2022/07/26 08:33:20;;;;;;;8.63;2.28;;;20.90;99.90;;;;;;4989612;28;20026;-79
2022/07/26 08:35:45;;;;;;;3.72;2.20;;;20.90;99.90;;;;;;4993633;28;20030;-80
2022/07/26 08:38:11;;;;;;;4.85;2.53;;;20.90;99.90;;;;;;4989004;28;20105;-80
2022/07/26 08:40:37;;;;;;;4.63;2.60;;;20.80;99.90;;;;;;4995590;28;20105;-80
2022/07/26 08:43:02;;;;;;;9.60;3.45;;;20.80;99.90;;;;;;4984816;28;20026;-80
2022/07/26 08:45:29;;;;;;;4.30;2.35;;;20.80;99.90;;;;;;4993200;28;20034;-80
2022/07/26 08:47:55;;;;;;;7.40;3.00;;;20.90;99.90;;;;;;4994432;28;20461;-80
2022/07/26 08:50:22;;;;;;;8.07;2.70;;;20.90;99.90;;;;;;4995733;28;20054;-80
2022/07/26 08:52:49;;;;;;;7.63;2.90;;;20.90;99.90;;;;;;4994489;28;20094;-80
2022/07/26 08:55:18;;;;;;;7.85;2.65;;;20.90;99.90;;;;;;4994079;28;20030;-80
2022/07/26 08:57:44;;;;;;;4.90;2.60;;;21.00;99.90;;;;;;4993428;28;20034;-79
2022/07/26 09:00:16;;;;;;;6.60;3.25;;;21.00;99.90;;;;;;4985927;28;20033;-79
2022/07/26 09:02:48;;;;;;;12.38;3.53;;;21.10;99.90;;;;;;4994374;28;20042;-80
2022/07/26 09:05:16;;;;;;;12.95;3.10;;;21.10;99.90;;;;;;4993694;28;20026;-79
2022/07/26 09:07:44;;;;;;;12.45;3.72;;;21.00;99.90;;;;;;4991553;28;20561;-80
2022/07/26 09:10:14;;;;;;;5.90;3.30;;;21.00;99.90;;;;;;4988348;28;20030;-80
2022/07/26 09:12:40;;;;;;;8.13;5.28;;;21.00;99.90;;;;;;4976024;28;20530;-80
2022/07/26 09:15:19;;;;;;;9.63;3.53;;;21.10;99.90;;;;;;4977404;28;20027;-79
2022/07/26 09:17:49;;;;;;;12.48;3.50;;;21.20;99.90;;;;;;4989285;28;20023;-79
2022/07/26 09:20:19;;;;;;;9.38;3.20;;;21.20;99.90;;;;;;4986681;28;20014;-79
2022/07/26 09:23:04;;;;;;;7.28;3.50;;;21.30;99.90;;;;;;4993747;28;20106;-79
2022/07/26 09:25:38;;;;;;;9.07;3.10;;;21.40;99.90;;;;;;4992307;28;20146;-79
2022/07/26 09:28:20;;;;;;;6.55;3.42;;;21.50;99.90;;;;;;4992783;28;20124;-80
2022/07/26 09:30:56;;;;;;;11.05;3.53;;;21.60;99.90;;;;;;4994500;28;20039;-80
2022/07/26 09:33:22;;;;;;;7.35;3.50;;;21.80;99.90;;;;;;4981507;28;20502;-80
2022/07/26 09:36:05;;;;;;;5.70;3.60;;;21.80;99.90;;;;;;4993816;28;20030;-80
2022/07/26 09:38:42;;;;;;;5.15;2.70;;;21.80;99.90;;;;;;4992220;28;20059;-79
2022/07/26 09:41:23;;;;;;;5.88;3.08;;;21.80;99.90;;;;;;4972369;28;20026;-80
2022/07/26 09:43:49;;;;;;;8.20;3.10;;;22.00;99.90;;;;;;4993282;28;20762;-80
2022/07/26 09:46:16;;;;;;;5.93;2.97;;;22.00;99.90;;;;;;4984944;28;20034;-80
2022/07/26 09:48:43;;;;;;;6.80;3.40;;;22.10;99.90;;;;;;4989743;28;20065;-80
2022/07/26 09:51:09;;;;;;;7.20;3.30;;;22.00;99.90;;;;;;4994187;28;20054;-80
2022/07/26 09:53:44;;;;;;;6.68;3.38;;;21.90;99.90;;;;;;4993136;28;20026;-79
2022/07/26 09:56:09;;;;;;;6.38;3.53;;;21.90;99.90;;;;;;4993298;28;20031;-80
2022/07/26 09:58:37;;;;;;;5.55;3.70;;;21.80;99.90;;;;;;4994825;28;20102;-80
2022/07/26 10:01:08;;;;;;;5.47;3.90;;;21.80;99.90;;;;;;4994261;28;20030;-80
2022/07/26 10:03:34;;;;;;;5.95;3.40;;;21.80;99.90;;;;;;4993434;28;20026;-80
2022/07/26 10:06:02;;;;;;;8.90;3.50;;;21.80;99.90;;;;;;4994275;28;20478;-80
2022/07/26 10:08:28;;;;;;;11.68;4.03;;;21.70;99.90;;;;;;4993491;28;20034;-80
2022/07/26 10:11:07;;;;;;;9.98;3.85;;;21.70;99.90;;;;;;4993947;28;20030;-79
2022/07/26 10:13:33;;;;;;;11.18;3.50;;;21.70;99.90;;;;;;4993513;28;20031;-80
2022/07/26 10:15:58;;;;;;;6.90;3.67;;;21.80;99.90;;;;;;4992159;28;20137;-80
2022/07/26 10:18:39;;;;;;;7.57;3.40;;;21.90;99.90;;;;;;4994395;28;20482;-79
2022/07/26 10:21:25;;;;;;;6.25;3.65;;;21.90;99.90;;;;;;4975929;28;20019;-80
2022/07/26 10:23:56;;;;;;;12.68;3.88;;;22.10;99.90;;;;;;4992818;28;20031;-80
2022/07/26 10:26:32;;;;;;;12.40;3.80;;;22.30;99.90;;;;;;4992990;28;20454;-80
2022/07/26 10:29:16;;;;;;;5.03;3.50;;;22.50;99.90;;;;;;4976465;28;20030;-80
2022/07/26 10:31:49;;;;;;;7.53;3.97;;;22.60;99.90;;;;;;4970680;28;20034;-80
2022/07/26 10:34:32;;;;;;;7.57;3.80;;;22.60;99.90;;;;;;4993533;28;20084;-80
2022/07/26 10:37:03;;;;;;;7.65;3.40;;;22.50;99.90;;;;;;4992774;28;20030;-79
2022/07/26 10:39:29;;;;;;;5.97;4.20;;;22.30;99.90;;;;;;4986156;28;20051;-80
2022/07/26 10:42:10;;;;;;;6.50;3.75;;;22.20;99.90;;;;;;4974500;28;20023;-80
2022/07/26 10:44:40;;;;;;;10.05;3.67;;;22.10;99.90;;;;;;4988684;28;20030;-79
2022/07/26 10:47:05;;;;;;;8.13;2.97;;;22.00;99.90;;;;;;4992262;28;20102;-79
2022/07/26 10:49:33;;;;;;;7.40;4.43;;;21.90;99.90;;;;;;4990384;28;20105;-79
2022/07/26 10:52:05;;;;;;;10.93;3.92;;;21.80;99.90;;;;;;4992891;28;20023;-79
2022/07/26 10:54:31;;;;;;;34.92;4.72;;;21.70;99.90;;;;;;4979900;28;20109;-80
2022/07/26 10:56:58;;;;;;;7.22;4.03;;;21.70;99.90;;;;;;4992430;28;20101;-79
2022/07/26 10:59:31;;;;;;;7.45;3.40;;;21.60;99.90;;;;;;4989529;28;20031;-79
2022/07/26 11:01:57;;;;;;;5.05;3.47;;;21.60;99.90;;;;;;4981322;28;20031;-80
2022/07/26 11:04:24;;;;;;;8.55;3.35;;;21.60;99.90;;;;;;4985602;28;20383;-80
2022/07/26 11:06:50;;;;;;;6.15;3.45;;;21.70;99.90;;;;;;4992194;28;20042;-80
2022/07/26 11:09:20;;;;;;;8.35;3.80;;;21.80;99.90;;;;;;4984154;28;20370;-80
2022/07/26 11:11:45;;;;;;;6.30;3.47;;;21.90;99.90;;;;;;4992261;28;20117;-80
2022/07/26 11:14:13;;;;;;;8.50;3.40;;;22.00;99.90;;;;;;4992065;28;20097;-80
2022/07/26 11:16:47;;;;;;;6.82;3.00;;;21.90;99.90;;;;;;4988318;28;20031;-80
2022/07/26 11:19:14;;;;;;;9.32;3.22;;;21.90;99.90;;;;;;4991818;28;20030;-79
2022/07/26 11:28:02;;;;;;;7.50;3.70;;;21.70;99.90;;;;;;4979756;28;20078;-79
2022/07/26 11:30:27;;;;;;;9.48;3.08;;;21.70;99.90;;;;;;4997409;28;20026;-79
2022/07/26 11:32:54;;;;;;;4.85;2.80;;;21.60;99.90;;;;;;5011853;28;20026;-79
2022/07/26 11:35:21;;;;;;;6.85;3.45;;;21.70;99.90;;;;;;5014048;28;20030;-80
2022/07/26 11:37:57;;;;;;;9.27;3.65;;;21.70;99.90;;;;;;4998394;28;20037;-80
2022/07/26 11:40:46;;;;;;;8.90;2.95;;;21.70;99.90;;;;;;4979685;28;20031;-80
2022/07/26 11:43:12;;;;;;;12.02;2.78;;;21.70;99.90;;;;;;4996726;28;20023;-79
2022/07/26 11:45:38;;;;;;;13.32;2.00;;;21.60;99.90;;;;;;5000046;28;20034;-80
2022/07/26 11:48:04;;;;;;;2.85;1.92;;;21.30;99.90;;;;;;4995773;28;20038;-80
2022/07/26 11:50:31;;;;;;;5.10;1.95;;;21.10;99.90;;;;;;4996080;28;20034;-80
2022/07/26 11:52:57;;;;;;;12.70;1.95;;;20.90;99.90;;;;;;4992676;28;20034;-79
2022/07/26 11:55:28;;;;;;;7.15;1.50;;;20.70;99.90;;;;;;4997789;28;20030;-80
2022/07/26 11:57:54;;;;;;;11.27;1.95;;;20.40;99.90;;;;;;5003453;28;20026;-79
2022/07/26 12:00:23;;;;;;;5.68;1.52;;;20.20;99.90;;;;;;4998982;28;20023;-80
2022/07/26 12:02:49;;;;;;;8.52;2.13;;;20.00;99.90;;;;;;4994970;28;20030;-80
2022/07/26 12:05:18;;;;;;;8.63;2.10;;;19.80;99.90;;;;;;4994939;28;20085;-80
2022/07/26 12:08:03;;;;;;;8.20;2.20;;;19.60;99.90;;;;;;4999733;28;20080;-80
2022/07/26 12:10:29;;;;;;;7.45;1.77;;;19.30;99.90;;;;;;5009099;28;20539;-80
2022/07/26 12:13:13;;;;;;;7.65;2.33;;;19.20;99.90;;;;;;4996022;28;20026;-80
2022/07/26 12:15:50;;;;;;;4.38;2.05;;;19.00;99.90;;;;;;4999275;28;20037;-80
2022/07/26 12:18:30;;;;;;;8.52;2.13;;;18.90;99.90;;;;;;4988975;28;20052;-80
2022/07/26 12:21:00;;;;;;;5.10;1.95;;;18.90;99.90;;;;;;4995454;28;20084;-79
2022/07/26 12:23:26;;;;;;;3.20;1.85;;;18.90;99.90;;;;;;4999214;28;20496;-80
2022/07/26 12:25:51;;;;;;;4.05;1.83;;;18.90;99.90;;;;;;4998793;28;20057;-79
2022/07/26 12:28:40;;;;;;;6.00;1.75;;;19.00;99.90;;;;;;5024608;28;20056;-79
2022/07/26 12:31:23;;;;;;;6.60;1.95;;;19.00;99.90;;;;;;5035490;28;20063;-80
2022/07/26 12:33:49;;;;;;;11.50;1.73;;;19.10;99.90;;;;;;5035661;28;20024;-80
2022/07/26 12:36:24;;;;;;;6.80;2.25;;;19.20;99.90;;;;;;5034217;28;20045;-79
2022/07/26 12:38:51;;;;;;;1.65;1.20;;;19.40;99.90;;;;;;5035291;28;20053;-79
2022/07/26 12:41:36;;;;;;;5.45;1.02;;;19.50;99.90;;;;;;5034791;28;20104;-80
2022/07/26 12:44:06;;;;;;;2.83;1.33;;;19.70;99.90;;;;;;5034405;28;20049;-79
2022/07/26 12:46:34;;;;;;;1.80;1.00;;;19.80;99.90;;;;;;5035356;28;20026;-80
2022/07/26 12:49:00;;;;;;;4.20;0.90;;;19.80;99.90;;;;;;5035224;28;20033;-79
2022/07/26 12:51:27;;;;;;;7.90;0.90;;;19.80;99.90;;;;;;5035474;28;20034;-79
2022/07/26 12:53:52;;;;;;;7.40;1.80;;;19.80;99.90;;;;;;5037163;28;20035;-79
2022/07/26 12:56:18;;;;;;;8.25;1.55;;;19.80;99.90;;;;;;5033801;28;20038;-79
2022/07/26 12:58:44;;;;;;;3.40;1.35;;;19.80;99.90;;;;;;5016756;28;20364;-80
2022/07/26 13:01:10;;;;;;;1.55;0.95;;;19.70;99.90;;;;;;5039085;28;20021;-79
2022/07/26 13:03:36;;;;;;;1.92;1.00;;;19.60;99.90;;;;;;5044175;28;20070;-80
2022/07/26 13:06:02;;;;;;;3.47;0.90;;;19.50;99.90;;;;;;5028256;28;20540;-79
2022/07/26 13:08:28;;;;;;;4.15;1.05;;;19.40;99.90;;;;;;5004486;28;20033;-79
2022/07/26 13:10:55;;;;;;;2.83;1.00;;;19.30;99.90;;;;;;5036781;28;20029;-79
2022/07/26 13:13:20;;;;;;;6.55;0.85;;;19.30;99.90;;;;;;5035932;28;20025;-80
2022/07/26 13:15:46;;;;;;;1.63;0.90;;;19.20;99.90;;;;;;5036746;28;20045;-80
2022/07/26 13:18:12;;;;;;;4.82;0.98;;;19.20;99.90;;;;;;5036126;28;20017;-80
2022/07/26 13:20:38;;;;;;;1.10;1.00;;;19.30;99.90;;;;;;5039493;28;20033;-80
2022/07/26 13:23:04;;;;;;;2.63;1.00;;;19.30;99.90;;;;;;5034230;28;20052;-80
2022/07/26 13:25:30;;;;;;;2.72;0.90;;;19.30;99.90;;;;;;5049248;28;20036;-80
2022/07/26 13:27:56;;;;;;;3.08;1.02;;;19.40;99.90;;;;;;5053831;28;20053;-80
2022/07/26 13:30:21;;;;;;;2.17;1.17;;;19.40;99.90;;;;;;5054285;28;20039;-80